Detalii statie AFILIU TRANS MIZIL [00001982]

Toti senzorii

Date Temperatura solului [C]Precipitatii [mm]Voltaj baterie [mV]Leaf Wetness [Min]HC Air temperature [C]HC Relative humidity [%]Punctul de roua [C]
medieminmaxsumaultimatimpmedieminmaxmediemediemin
2017-12-10 22:00:00 0 6874 -0.82 -1.18 -0.6 100 -0.6 -1
2017-12-10 23:00:00 0 6874 -1.15 -1.37 -0.9 100 -1 -1.2
2017-12-11 00:00:00 0 6874 -1.5 -1.7 -1.19 100 -1.3 -1.6
2017-12-11 01:00:00 0 6854 -1.45 -1.6 -1.28 100 -1.3 -1.5
2017-12-11 02:00:00 0 6854 -1.1 -1.41 -0.92 100 -0.9 -1.3
2017-12-11 03:00:00 0 6864 -1.35 -1.49 -1.12 100 -1.2 -1.3
2017-12-11 04:00:00 0 6854 -1.49 -1.8 -1.26 100 -1.3 -1.7
2017-12-11 05:00:00 0 6854 -1.96 -2.33 -1.65 100 -1.8 -2.2
2017-12-11 06:00:00 0 6854 -2.19 -2.46 -2 100 -2 -2.3
2017-12-11 07:00:00 0 6854 -2.34 -2.59 -2.18 100 -2.1 -2.4
2017-12-11 08:00:00 0 6834 -2.37 -2.53 -2.07 100 -2.2 -2.4
2017-12-11 09:00:00 0 7186 -1.55 -2.03 -1.05 100 -1.4 -1.9
2017-12-11 10:00:00 0 7226 0.47 -0.92 1.44 93.29 -0.4 -0.8
2017-12-11 11:00:00 0 7226 2.82 1.9 3.47 78.51 -0.6 -1.1
2017-12-11 12:00:00 0 7226 4.34 3.17 5.58 70.95 -0.5 -1.1
2017-12-11 13:00:00 0 7216 5.29 4.71 5.71 69.39 0.1 -0.5
2017-12-11 14:00:00 0 7206 5.37 4.79 5.68 74.73 1 0
2017-12-11 15:00:00 0 7186 4.76 4.66 4.89 78.23 1.1 0.9
2017-12-11 16:00:00 0 7098 4.1 3.72 4.61 80.58 0.9 0.8
2017-12-11 17:00:00 0 6972 3.02 2.61 3.55 86.77 0.9 0.6
2017-12-11 18:00:00 0 6952 2.35 1.83 2.78 86.6 0.2 0
2017-12-11 19:00:00 0 6914 1.75 1.47 2.04 87.93 -0.1 -0.4
2017-12-11 20:00:00 0 6904 1.58 1.31 1.83 87.38 -0.2 -0.4
2017-12-11 21:00:00 0 6904 0.69 0.02 1.3 94.79 0 -0.5
2017-12-11 22:00:00 0 6894 0.02 -0.16 0.18 100 0 0
2017-12-11 23:00:00 0 6894 0.17 -0.13 0.49 100 0.1 0
2017-12-12 00:00:00 0 6884 0.32 0.03 0.55 100 0.2 0
2017-12-12 01:00:00 0 6884 0.73 0.31 1.11 99.56 0.5 0.3
2017-12-12 02:00:00 0 6884 0.36 0.06 0.6 100 0.3 0
2017-12-12 03:00:00 0 6874 -0.07 -0.38 0.44 100 0 -0.2
2017-12-12 04:00:00 0 6874 0.88 0.55 1.48 99.07 0.6 0.5
2017-12-12 05:00:00 0 6874 1.59 0.98 1.96 92.1 0.2 0.1
2017-12-12 06:00:00 0 6874 0.72 -0.52 1.66 97.31 0.2 -0.4
2017-12-12 07:00:00 0 6864 0.36 0.15 0.6 100 0.3 0.1
2017-12-12 08:00:00 0 6854 0.96 0.61 1.52 98.22 0.6 0.3
2017-12-12 09:00:00 0 7216 1.79 1.1 2.82 94.44 0.8 0.5
2017-12-12 10:00:00 0 7226 4.27 3.15 4.96 83.33 1.5 1.2
2017-12-12 11:00:00 0 7226 7.75 5.19 9.8 69.66 2.3 1.8
2017-12-12 12:00:00 0 7226 11.16 10.02 11.81 59.53 3.4 3
2017-12-12 13:00:00 0 7226 12.55 11.85 13.11 55.69 3.8 3.1
2017-12-12 14:00:00 0 7226 13.26 13.15 13.4 54.71 4.1 3.9
2017-12-12 15:00:00 0 7226 12.85 12.55 13.22 58.3 4.6 4.1
2017-12-12 16:00:00 0 7148 11.92 10.65 12.63 64.6 5.3 5.1
2017-12-12 17:00:00 0 7010 9.44 8.46 10.6 77.32 5.5 5.4
2017-12-12 18:00:00 0 6962 7.38 6.42 8.12 87.5 5.2 5.1
2017-12-12 19:00:00 0 6932 5.82 5.45 6.36 97.45 5.3 5.2